sensor_id;sensor_type;location;lat;lon;timestamp;P1;durP1;ratioP1;P2;durP2;ratioP2
70213;SDS011;60138;55.808;37.078;2022-07-09T00:01:30;12.50;;;5.80;;
70213;SDS011;60138;55.808;37.078;2022-07-09T00:03:55;9.05;;;5.22;;
70213;SDS011;60138;55.808;37.078;2022-07-09T00:06:21;10.60;;;6.00;;
70213;SDS011;60138;55.808;37.078;2022-07-09T00:08:47;9.93;;;5.57;;
70213;SDS011;60138;55.808;37.078;2022-07-09T00:11:12;10.43;;;5.53;;
70213;SDS011;60138;55.808;37.078;2022-07-09T00:13:38;9.23;;;5.25;;
70213;SDS011;60138;55.808;37.078;2022-07-09T00:16:04;10.67;;;6.13;;
70213;SDS011;60138;55.808;37.078;2022-07-09T00:18:30;9.25;;;5.82;;
70213;SDS011;60138;55.808;37.078;2022-07-09T00:20:55;12.32;;;5.72;;
70213;SDS011;60138;55.808;37.078;2022-07-09T00:23:21;11.50;;;5.47;;
70213;SDS011;60138;55.808;37.078;2022-07-09T00:25:47;11.68;;;5.50;;
70213;SDS011;60138;55.808;37.078;2022-07-09T00:28:13;15.00;;;7.03;;
70213;SDS011;60138;55.808;37.078;2022-07-09T00:30:39;14.13;;;6.65;;
70213;SDS011;60138;55.808;37.078;2022-07-09T00:33:04;15.35;;;7.18;;
70213;SDS011;60138;55.808;37.078;2022-07-09T00:35:30;11.40;;;7.35;;
70213;SDS011;60138;55.808;37.078;2022-07-09T00:37:56;15.70;;;7.37;;
70213;SDS011;60138;55.808;37.078;2022-07-09T00:40:22;16.83;;;7.57;;
70213;SDS011;60138;55.808;37.078;2022-07-09T00:42:47;13.50;;;6.55;;
70213;SDS011;60138;55.808;37.078;2022-07-09T00:45:13;13.73;;;7.83;;
70213;SDS011;60138;55.808;37.078;2022-07-09T00:47:39;15.10;;;6.80;;
70213;SDS011;60138;55.808;37.078;2022-07-09T00:50:05;14.48;;;7.03;;
70213;SDS011;60138;55.808;37.078;2022-07-09T00:52:31;13.95;;;6.80;;
70213;SDS011;60138;55.808;37.078;2022-07-09T00:55:00;13.52;;;6.45;;
70213;SDS011;60138;55.808;37.078;2022-07-09T00:57:26;14.18;;;7.80;;
70213;SDS011;60138;55.808;37.078;2022-07-09T00:59:53;15.00;;;7.35;;
70213;SDS011;60138;55.808;37.078;2022-07-09T01:02:19;10.67;;;6.87;;
70213;SDS011;60138;55.808;37.078;2022-07-09T01:04:47;14.73;;;7.40;;
70213;SDS011;60138;55.808;37.078;2022-07-09T01:07:13;10.48;;;7.28;;
70213;SDS011;60138;55.808;37.078;2022-07-09T01:09:39;13.57;;;6.23;;
70213;SDS011;60138;55.808;37.078;2022-07-09T01:12:06;10.30;;;6.40;;
70213;SDS011;60138;55.808;37.078;2022-07-09T01:14:32;12.13;;;6.40;;
70213;SDS011;60138;55.808;37.078;2022-07-09T01:16:58;8.20;;;5.63;;
70213;SDS011;60138;55.808;37.078;2022-07-09T01:19:29;13.32;;;6.63;;
70213;SDS011;60138;55.808;37.078;2022-07-09T01:21:56;13.88;;;6.75;;
70213;SDS011;60138;55.808;37.078;2022-07-09T01:24:22;15.65;;;6.55;;
70213;SDS011;60138;55.808;37.078;2022-07-09T01:26:49;14.93;;;7.10;;
70213;SDS011;60138;55.808;37.078;2022-07-09T01:29:16;12.60;;;6.85;;
70213;SDS011;60138;55.808;37.078;2022-07-09T01:31:42;13.45;;;7.20;;
70213;SDS011;60138;55.808;37.078;2022-07-09T01:34:08;14.83;;;6.77;;
70213;SDS011;60138;55.808;37.078;2022-07-09T01:36:33;17.75;;;7.35;;
70213;SDS011;60138;55.808;37.078;2022-07-09T01:38:59;14.77;;;6.83;;
70213;SDS011;60138;55.808;37.078;2022-07-09T01:41:25;12.00;;;6.82;;
70213;SDS011;60138;55.808;37.078;2022-07-09T01:43:51;14.00;;;8.25;;
70213;SDS011;60138;55.808;37.078;2022-07-09T01:46:17;14.60;;;8.17;;
70213;SDS011;60138;55.808;37.078;2022-07-09T01:48:42;15.30;;;7.35;;
70213;SDS011;60138;55.808;37.078;2022-07-09T01:51:08;18.97;;;8.43;;
70213;SDS011;60138;55.808;37.078;2022-07-09T01:53:35;13.52;;;7.28;;
70213;SDS011;60138;55.808;37.078;2022-07-09T01:56:07;15.45;;;6.00;;
70213;SDS011;60138;55.808;37.078;2022-07-09T01:58:35;10.25;;;6.00;;
70213;SDS011;60138;55.808;37.078;2022-07-09T02:01:02;15.03;;;6.63;;
70213;SDS011;60138;55.808;37.078;2022-07-09T02:03:28;12.52;;;6.05;;
70213;SDS011;60138;55.808;37.078;2022-07-09T02:05:54;13.80;;;6.93;;
70213;SDS011;60138;55.808;37.078;2022-07-09T02:08:20;10.02;;;6.45;;
70213;SDS011;60138;55.808;37.078;2022-07-09T02:10:46;10.93;;;6.90;;
70213;SDS011;60138;55.808;37.078;2022-07-09T02:13:12;10.80;;;6.13;;
70213;SDS011;60138;55.808;37.078;2022-07-09T02:15:38;9.93;;;6.43;;
70213;SDS011;60138;55.808;37.078;2022-07-09T02:18:04;13.32;;;6.72;;
70213;SDS011;60138;55.808;37.078;2022-07-09T02:20:30;12.25;;;6.82;;
70213;SDS011;60138;55.808;37.078;2022-07-09T02:22:56;12.55;;;5.70;;
70213;SDS011;60138;55.808;37.078;2022-07-09T02:25:22;10.67;;;6.10;;
70213;SDS011;60138;55.808;37.078;2022-07-09T02:27:47;11.07;;;5.88;;
70213;SDS011;60138;55.808;37.078;2022-07-09T02:30:13;9.20;;;5.93;;
70213;SDS011;60138;55.808;37.078;2022-07-09T02:32:39;12.80;;;5.80;;
70213;SDS011;60138;55.808;37.078;2022-07-09T02:35:05;11.00;;;6.27;;
70213;SDS011;60138;55.808;37.078;2022-07-09T02:37:31;11.70;;;5.88;;
70213;SDS011;60138;55.808;37.078;2022-07-09T02:39:57;9.10;;;5.18;;
70213;SDS011;60138;55.808;37.078;2022-07-09T02:42:23;7.30;;;4.90;;
70213;SDS011;60138;55.808;37.078;2022-07-09T02:44:49;10.05;;;5.30;;
70213;SDS011;60138;55.808;37.078;2022-07-09T02:47:14;9.85;;;5.40;;
70213;SDS011;60138;55.808;37.078;2022-07-09T02:49:40;10.43;;;5.60;;
70213;SDS011;60138;55.808;37.078;2022-07-09T02:52:06;9.45;;;5.50;;
70213;SDS011;60138;55.808;37.078;2022-07-09T02:54:32;14.10;;;5.82;;
70213;SDS011;60138;55.808;37.078;2022-07-09T02:56:58;9.55;;;5.90;;
70213;SDS011;60138;55.808;37.078;2022-07-09T02:59:23;8.13;;;6.07;;
70213;SDS011;60138;55.808;37.078;2022-07-09T03:01:49;12.40;;;6.60;;
70213;SDS011;60138;55.808;37.078;2022-07-09T03:04:15;10.35;;;6.03;;
70213;SDS011;60138;55.808;37.078;2022-07-09T03:06:41;8.47;;;5.80;;
70213;SDS011;60138;55.808;37.078;2022-07-09T03:09:06;9.40;;;5.63;;
70213;SDS011;60138;55.808;37.078;2022-07-09T03:11:32;12.03;;;6.30;;
70213;SDS011;60138;55.808;37.078;2022-07-09T03:13:58;10.45;;;5.75;;
70213;SDS011;60138;55.808;37.078;2022-07-09T03:16:23;8.70;;;6.20;;
70213;SDS011;60138;55.808;37.078;2022-07-09T03:18:49;12.13;;;5.95;;
70213;SDS011;60138;55.808;37.078;2022-07-09T03:21:15;8.77;;;6.00;;
70213;SDS011;60138;55.808;37.078;2022-07-09T03:23:40;11.88;;;6.63;;
70213;SDS011;60138;55.808;37.078;2022-07-09T03:26:06;12.27;;;6.00;;
70213;SDS011;60138;55.808;37.078;2022-07-09T03:28:32;12.02;;;6.13;;
70213;SDS011;60138;55.808;37.078;2022-07-09T03:30:59;11.38;;;6.70;;
70213;SDS011;60138;55.808;37.078;2022-07-09T03:33:25;10.97;;;6.40;;
70213;SDS011;60138;55.808;37.078;2022-07-09T03:35:53;12.85;;;6.15;;
70213;SDS011;60138;55.808;37.078;2022-07-09T03:38:19;13.38;;;6.90;;
70213;SDS011;60138;55.808;37.078;2022-07-09T03:40:45;14.73;;;6.10;;
70213;SDS011;60138;55.808;37.078;2022-07-09T03:43:10;10.30;;;6.25;;
70213;SDS011;60138;55.808;37.078;2022-07-09T03:45:36;11.57;;;6.40;;
70213;SDS011;60138;55.808;37.078;2022-07-09T03:48:02;11.23;;;6.20;;
70213;SDS011;60138;55.808;37.078;2022-07-09T03:50:28;12.95;;;6.07;;
70213;SDS011;60138;55.808;37.078;2022-07-09T03:52:54;16.53;;;6.70;;
70213;SDS011;60138;55.808;37.078;2022-07-09T03:55:20;13.85;;;6.45;;
70213;SDS011;60138;55.808;37.078;2022-07-09T03:57:45;15.47;;;7.03;;
70213;SDS011;60138;55.808;37.078;2022-07-09T04:00:11;11.73;;;6.95;;
70213;SDS011;60138;55.808;37.078;2022-07-09T04:02:43;17.02;;;7.22;;
70213;SDS011;60138;55.808;37.078;2022-07-09T04:05:09;9.00;;;6.33;;
70213;SDS011;60138;55.808;37.078;2022-07-09T04:07:35;15.68;;;7.97;;
70213;SDS011;60138;55.808;37.078;2022-07-09T04:10:01;11.18;;;6.47;;
70213;SDS011;60138;55.808;37.078;2022-07-09T04:12:28;9.47;;;5.97;;
70213;SDS011;60138;55.808;37.078;2022-07-09T04:14:54;11.95;;;6.75;;
70213;SDS011;60138;55.808;37.078;2022-07-09T04:17:20;13.27;;;6.63;;
70213;SDS011;60138;55.808;37.078;2022-07-09T04:19:45;11.25;;;6.57;;
70213;SDS011;60138;55.808;37.078;2022-07-09T04:22:11;10.77;;;6.77;;
70213;SDS011;60138;55.808;37.078;2022-07-09T04:24:37;14.02;;;6.80;;
70213;SDS011;60138;55.808;37.078;2022-07-09T04:27:03;11.00;;;7.43;;
70213;SDS011;60138;55.808;37.078;2022-07-09T04:29:29;16.83;;;7.50;;
70213;SDS011;60138;55.808;37.078;2022-07-09T04:31:54;11.07;;;6.80;;
70213;SDS011;60138;55.808;37.078;2022-07-09T04:34:20;16.42;;;6.57;;
70213;SDS011;60138;55.808;37.078;2022-07-09T04:36:46;16.87;;;8.30;;
70213;SDS011;60138;55.808;37.078;2022-07-09T04:39:11;14.05;;;7.72;;
70213;SDS011;60138;55.808;37.078;2022-07-09T04:41:37;13.87;;;7.50;;
70213;SDS011;60138;55.808;37.078;2022-07-09T04:44:03;13.73;;;8.60;;
70213;SDS011;60138;55.808;37.078;2022-07-09T04:46:29;14.98;;;7.97;;
70213;SDS011;60138;55.808;37.078;2022-07-09T04:48:54;11.37;;;7.93;;
70213;SDS011;60138;55.808;37.078;2022-07-09T04:51:20;14.90;;;8.25;;
70213;SDS011;60138;55.808;37.078;2022-07-09T04:53:46;16.17;;;7.97;;
70213;SDS011;60138;55.808;37.078;2022-07-09T04:56:12;14.90;;;7.60;;
70213;SDS011;60138;55.808;37.078;2022-07-09T04:58:37;13.00;;;8.27;;
70213;SDS011;60138;55.808;37.078;2022-07-09T05:01:03;15.10;;;9.13;;
70213;SDS011;60138;55.808;37.078;2022-07-09T05:03:29;17.27;;;8.95;;
70213;SDS011;60138;55.808;37.078;2022-07-09T05:05:55;19.40;;;9.50;;
70213;SDS011;60138;55.808;37.078;2022-07-09T05:08:20;19.88;;;9.93;;
70213;SDS011;60138;55.808;37.078;2022-07-09T05:10:46;13.57;;;8.70;;
70213;SDS011;60138;55.808;37.078;2022-07-09T05:13:12;21.73;;;9.15;;
70213;SDS011;60138;55.808;37.078;2022-07-09T05:15:38;24.77;;;10.05;;
70213;SDS011;60138;55.808;37.078;2022-07-09T05:18:03;14.00;;;8.47;;
70213;SDS011;60138;55.808;37.078;2022-07-09T05:20:29;15.55;;;8.75;;
70213;SDS011;60138;55.808;37.078;2022-07-09T05:22:55;15.63;;;8.73;;
70213;SDS011;60138;55.808;37.078;2022-07-09T05:25:21;26.25;;;10.85;;
70213;SDS011;60138;55.808;37.078;2022-07-09T05:27:47;15.80;;;9.13;;
70213;SDS011;60138;55.808;37.078;2022-07-09T05:30:13;17.30;;;9.60;;
70213;SDS011;60138;55.808;37.078;2022-07-09T05:32:39;18.25;;;9.15;;
70213;SDS011;60138;55.808;37.078;2022-07-09T05:35:05;15.32;;;11.25;;
70213;SDS011;60138;55.808;37.078;2022-07-09T05:37:31;16.77;;;10.33;;
70213;SDS011;60138;55.808;37.078;2022-07-09T05:39:57;15.85;;;10.55;;
70213;SDS011;60138;55.808;37.078;2022-07-09T05:42:23;15.48;;;8.98;;
70213;SDS011;60138;55.808;37.078;2022-07-09T05:44:49;15.33;;;9.60;;
70213;SDS011;60138;55.808;37.078;2022-07-09T05:47:15;15.23;;;10.10;;
70213;SDS011;60138;55.808;37.078;2022-07-09T05:49:41;16.17;;;9.82;;
70213;SDS011;60138;55.808;37.078;2022-07-09T05:52:07;12.20;;;8.50;;
70213;SDS011;60138;55.808;37.078;2022-07-09T05:54:32;11.23;;;7.18;;
70213;SDS011;60138;55.808;37.078;2022-07-09T05:56:58;13.70;;;7.20;;
70213;SDS011;60138;55.808;37.078;2022-07-09T05:59:24;15.50;;;8.03;;
70213;SDS011;60138;55.808;37.078;2022-07-09T06:01:50;13.82;;;8.05;;
70213;SDS011;60138;55.808;37.078;2022-07-09T06:04:16;12.43;;;7.97;;
70213;SDS011;60138;55.808;37.078;2022-07-09T06:06:41;12.40;;;7.20;;
70213;SDS011;60138;55.808;37.078;2022-07-09T06:09:07;10.63;;;6.20;;
70213;SDS011;60138;55.808;37.078;2022-07-09T06:11:33;14.70;;;6.03;;
70213;SDS011;60138;55.808;37.078;2022-07-09T06:13:59;9.27;;;6.38;;
70213;SDS011;60138;55.808;37.078;2022-07-09T06:16:24;12.87;;;6.70;;
70213;SDS011;60138;55.808;37.078;2022-07-09T06:18:50;10.40;;;6.47;;
70213;SDS011;60138;55.808;37.078;2022-07-09T06:21:16;13.17;;;6.10;;
70213;SDS011;60138;55.808;37.078;2022-07-09T06:23:42;8.23;;;5.70;;
70213;SDS011;60138;55.808;37.078;2022-07-09T06:26:07;10.02;;;6.05;;
70213;SDS011;60138;55.808;37.078;2022-07-09T06:28:35;9.60;;;5.77;;
70213;SDS011;60138;55.808;37.078;2022-07-09T06:31:02;10.60;;;6.05;;
70213;SDS011;60138;55.808;37.078;2022-07-09T06:33:27;14.05;;;5.50;;
70213;SDS011;60138;55.808;37.078;2022-07-09T06:35:53;11.37;;;5.20;;
70213;SDS011;60138;55.808;37.078;2022-07-09T06:38:19;12.93;;;5.00;;
70213;SDS011;60138;55.808;37.078;2022-07-09T06:40:44;10.50;;;5.30;;
70213;SDS011;60138;55.808;37.078;2022-07-09T06:43:10;10.45;;;5.28;;
70213;SDS011;60138;55.808;37.078;2022-07-09T06:45:43;12.13;;;4.90;;
70213;SDS011;60138;55.808;37.078;2022-07-09T06:48:09;11.80;;;6.07;;
70213;SDS011;60138;55.808;37.078;2022-07-09T06:50:35;13.47;;;6.17;;
70213;SDS011;60138;55.808;37.078;2022-07-09T06:53:01;12.37;;;6.57;;
70213;SDS011;60138;55.808;37.078;2022-07-09T06:55:26;9.13;;;5.80;;
70213;SDS011;60138;55.808;37.078;2022-07-09T06:57:52;14.60;;;6.00;;
70213;SDS011;60138;55.808;37.078;2022-07-09T07:00:18;10.80;;;6.10;;
70213;SDS011;60138;55.808;37.078;2022-07-09T07:02:43;15.07;;;6.77;;
70213;SDS011;60138;55.808;37.078;2022-07-09T07:05:09;10.70;;;6.13;;
70213;SDS011;60138;55.808;37.078;2022-07-09T07:07:35;8.83;;;6.20;;
70213;SDS011;60138;55.808;37.078;2022-07-09T07:10:01;9.70;;;5.88;;
70213;SDS011;60138;55.808;37.078;2022-07-09T07:12:28;10.10;;;6.67;;
70213;SDS011;60138;55.808;37.078;2022-07-09T07:14:54;11.05;;;6.65;;
70213;SDS011;60138;55.808;37.078;2022-07-09T07:17:20;15.10;;;6.97;;
70213;SDS011;60138;55.808;37.078;2022-07-09T07:19:45;11.43;;;6.30;;
70213;SDS011;60138;55.808;37.078;2022-07-09T07:22:11;13.40;;;7.37;;
70213;SDS011;60138;55.808;37.078;2022-07-09T07:24:37;9.32;;;5.75;;
70213;SDS011;60138;55.808;37.078;2022-07-09T07:27:03;12.47;;;5.87;;
70213;SDS011;60138;55.808;37.078;2022-07-09T07:29:29;15.57;;;6.30;;
70213;SDS011;60138;55.808;37.078;2022-07-09T07:31:55;10.55;;;5.70;;
70213;SDS011;60138;55.808;37.078;2022-07-09T07:34:21;9.40;;;5.50;;
70213;SDS011;60138;55.808;37.078;2022-07-09T07:36:46;8.73;;;5.50;;
70213;SDS011;60138;55.808;37.078;2022-07-09T07:39:12;9.90;;;6.00;;
70213;SDS011;60138;55.808;37.078;2022-07-09T07:41:38;11.00;;;5.80;;
70213;SDS011;60138;55.808;37.078;2022-07-09T07:44:03;7.50;;;4.80;;
70213;SDS011;60138;55.808;37.078;2022-07-09T07:46:29;12.85;;;5.22;;
70213;SDS011;60138;55.808;37.078;2022-07-09T07:48:55;8.67;;;4.93;;
70213;SDS011;60138;55.808;37.078;2022-07-09T07:51:20;11.00;;;5.28;;
70213;SDS011;60138;55.808;37.078;2022-07-09T07:53:46;10.85;;;5.80;;
70213;SDS011;60138;55.808;37.078;2022-07-09T07:56:12;10.73;;;5.80;;
70213;SDS011;60138;55.808;37.078;2022-07-09T07:58:38;14.60;;;6.68;;
70213;SDS011;60138;55.808;37.078;2022-07-09T08:01:03;9.63;;;5.57;;
70213;SDS011;60138;55.808;37.078;2022-07-09T08:03:29;13.30;;;5.90;;
70213;SDS011;60138;55.808;37.078;2022-07-09T08:05:55;10.27;;;5.97;;
70213;SDS011;60138;55.808;37.078;2022-07-09T08:08:21;10.65;;;6.72;;
70213;SDS011;60138;55.808;37.078;2022-07-09T08:10:47;12.17;;;5.63;;
70213;SDS011;60138;55.808;37.078;2022-07-09T08:13:14;11.52;;;7.03;;
70213;SDS011;60138;55.808;37.078;2022-07-09T08:15:40;8.93;;;5.85;;
70213;SDS011;60138;55.808;37.078;2022-07-09T08:18:06;9.50;;;4.82;;
70213;SDS011;60138;55.808;37.078;2022-07-09T08:20:32;8.87;;;5.13;;
70213;SDS011;60138;55.808;37.078;2022-07-09T08:22:57;8.43;;;4.40;;
70213;SDS011;60138;55.808;37.078;2022-07-09T08:25:23;7.27;;;4.17;;
70213;SDS011;60138;55.808;37.078;2022-07-09T08:27:49;9.48;;;4.75;;
70213;SDS011;60138;55.808;37.078;2022-07-09T08:30:15;9.53;;;4.60;;
70213;SDS011;60138;55.808;37.078;2022-07-09T08:32:40;9.65;;;4.78;;
70213;SDS011;60138;55.808;37.078;2022-07-09T08:35:07;7.93;;;4.68;;
70213;SDS011;60138;55.808;37.078;2022-07-09T08:37:33;7.72;;;4.72;;
70213;SDS011;60138;55.808;37.078;2022-07-09T08:40:04;7.53;;;4.57;;
70213;SDS011;60138;55.808;37.078;2022-07-09T08:42:30;6.13;;;4.47;;
70213;SDS011;60138;55.808;37.078;2022-07-09T08:44:56;7.30;;;4.43;;
70213;SDS011;60138;55.808;37.078;2022-07-09T08:47:22;8.93;;;4.93;;
70213;SDS011;60138;55.808;37.078;2022-07-09T08:49:50;7.95;;;4.57;;
70213;SDS011;60138;55.808;37.078;2022-07-09T08:52:21;8.13;;;5.00;;
70213;SDS011;60138;55.808;37.078;2022-07-09T08:54:48;8.52;;;4.55;;
70213;SDS011;60138;55.808;37.078;2022-07-09T08:57:17;6.82;;;5.47;;
70213;SDS011;60138;55.808;37.078;2022-07-09T08:59:43;8.97;;;5.00;;
70213;SDS011;60138;55.808;37.078;2022-07-09T09:02:09;10.20;;;4.28;;
70213;SDS011;60138;55.808;37.078;2022-07-09T09:04:35;8.63;;;4.93;;
70213;SDS011;60138;55.808;37.078;2022-07-09T09:07:17;7.38;;;4.32;;
70213;SDS011;60138;55.808;37.078;2022-07-09T09:09:44;6.88;;;4.05;;
70213;SDS011;60138;55.808;37.078;2022-07-09T09:12:11;7.00;;;4.75;;
70213;SDS011;60138;55.808;37.078;2022-07-09T09:14:38;6.07;;;4.20;;
70213;SDS011;60138;55.808;37.078;2022-07-09T09:17:04;6.50;;;4.00;;
70213;SDS011;60138;55.808;37.078;2022-07-09T09:19:31;9.13;;;4.38;;
70213;SDS011;60138;55.808;37.078;2022-07-09T09:21:57;9.10;;;4.53;;
70213;SDS011;60138;55.808;37.078;2022-07-09T09:24:23;6.53;;;4.60;;
70213;SDS011;60138;55.808;37.078;2022-07-09T09:26:50;9.15;;;4.93;;
70213;SDS011;60138;55.808;37.078;2022-07-09T09:29:16;8.65;;;5.22;;
70213;SDS011;60138;55.808;37.078;2022-07-09T09:31:44;10.70;;;4.67;;
70213;SDS011;60138;55.808;37.078;2022-07-09T09:34:11;7.60;;;4.68;;
70213;SDS011;60138;55.808;37.078;2022-07-09T09:36:45;7.28;;;5.20;;
70213;SDS011;60138;55.808;37.078;2022-07-09T09:41:45;8.53;;;5.00;;
70213;SDS011;60138;55.808;37.078;2022-07-09T09:44:20;8.35;;;5.25;;
70213;SDS011;60138;55.808;37.078;2022-07-09T09:46:47;8.10;;;5.90;;
70213;SDS011;60138;55.808;37.078;2022-07-09T09:49:13;9.57;;;6.05;;
70213;SDS011;60138;55.808;37.078;2022-07-09T09:54:27;8.03;;;5.57;;
70213;SDS011;60138;55.808;37.078;2022-07-09T09:56:53;9.90;;;6.15;;
70213;SDS011;60138;55.808;37.078;2022-07-09T09:59:19;9.45;;;6.15;;
70213;SDS011;60138;55.808;37.078;2022-07-09T10:01:45;8.18;;;5.28;;
70213;SDS011;60138;55.808;37.078;2022-07-09T10:04:12;10.25;;;6.10;;
70213;SDS011;60138;55.808;37.078;2022-07-09T10:06:39;7.50;;;5.30;;
70213;SDS011;60138;55.808;37.078;2022-07-09T10:09:06;9.05;;;6.10;;
70213;SDS011;60138;55.808;37.078;2022-07-09T10:11:39;9.10;;;6.00;;
70213;SDS011;60138;55.808;37.078;2022-07-09T10:16:50;9.50;;;6.05;;
70213;SDS011;60138;55.808;37.078;2022-07-09T10:19:23;11.87;;;6.10;;
70213;SDS011;60138;55.808;37.078;2022-07-09T10:21:54;11.00;;;6.80;;
70213;SDS011;60138;55.808;37.078;2022-07-09T10:24:27;11.05;;;6.10;;
70213;SDS011;60138;55.808;37.078;2022-07-09T10:27:10;8.75;;;5.25;;
70213;SDS011;60138;55.808;37.078;2022-07-09T10:29:37;8.45;;;5.70;;
70213;SDS011;60138;55.808;37.078;2022-07-09T10:32:21;8.83;;;5.23;;
70213;SDS011;60138;55.808;37.078;2022-07-09T10:34:57;9.75;;;5.95;;
70213;SDS011;60138;55.808;37.078;2022-07-09T10:37:33;9.02;;;5.18;;
70213;SDS011;60138;55.808;37.078;2022-07-09T10:40:09;9.48;;;4.72;;
70213;SDS011;60138;55.808;37.078;2022-07-09T10:42:56;6.50;;;4.15;;
70213;SDS011;60138;55.808;37.078;2022-07-09T10:45:24;6.60;;;4.70;;
70213;SDS011;60138;55.808;37.078;2022-07-09T10:47:54;8.68;;;4.82;;
70213;SDS011;60138;55.808;37.078;2022-07-09T10:50:21;10.18;;;5.65;;
70213;SDS011;60138;55.808;37.078;2022-07-09T10:52:49;9.25;;;4.60;;
70213;SDS011;60138;55.808;37.078;2022-07-09T10:55:16;5.65;;;4.45;;
70213;SDS011;60138;55.808;37.078;2022-07-09T10:57:42;8.77;;;4.33;;
70213;SDS011;60138;55.808;37.078;2022-07-09T11:00:08;7.88;;;3.95;;
70213;SDS011;60138;55.808;37.078;2022-07-09T11:02:38;10.32;;;4.55;;
70213;SDS011;60138;55.808;37.078;2022-07-09T11:05:15;9.55;;;4.70;;
70213;SDS011;60138;55.808;37.078;2022-07-09T11:07:41;11.65;;;4.63;;
70213;SDS011;60138;55.808;37.078;2022-07-09T11:10:06;6.93;;;4.33;;
70213;SDS011;60138;55.808;37.078;2022-07-09T11:12:32;8.75;;;4.30;;
70213;SDS011;60138;55.808;37.078;2022-07-09T11:14:58;8.50;;;4.80;;
70213;SDS011;60138;55.808;37.078;2022-07-09T11:17:24;9.77;;;3.88;;
70213;SDS011;60138;55.808;37.078;2022-07-09T11:19:51;9.85;;;4.10;;
70213;SDS011;60138;55.808;37.078;2022-07-09T11:22:18;10.63;;;4.20;;
70213;SDS011;60138;55.808;37.078;2022-07-09T11:24:44;8.93;;;3.70;;
70213;SDS011;60138;55.808;37.078;2022-07-09T11:27:10;11.03;;;4.40;;
70213;SDS011;60138;55.808;37.078;2022-07-09T11:29:36;11.73;;;5.85;;
70213;SDS011;60138;55.808;37.078;2022-07-09T11:32:02;8.95;;;5.03;;
70213;SDS011;60138;55.808;37.078;2022-07-09T11:34:29;11.38;;;6.78;;
70213;SDS011;60138;55.808;37.078;2022-07-09T11:36:55;9.33;;;5.53;;
70213;SDS011;60138;55.808;37.078;2022-07-09T11:41:48;10.27;;;5.37;;
70213;SDS011;60138;55.808;37.078;2022-07-09T11:46:58;7.63;;;4.80;;
70213;SDS011;60138;55.808;37.078;2022-07-09T11:49:31;9.82;;;4.85;;
70213;SDS011;60138;55.808;37.078;2022-07-09T11:52:01;8.25;;;4.57;;
70213;SDS011;60138;55.808;37.078;2022-07-09T11:54:29;8.40;;;4.80;;
70213;SDS011;60138;55.808;37.078;2022-07-09T11:56:55;6.57;;;4.25;;
70213;SDS011;60138;55.808;37.078;2022-07-09T11:59:28;8.83;;;5.30;;
70213;SDS011;60138;55.808;37.078;2022-07-09T12:01:54;8.23;;;4.28;;
70213;SDS011;60138;55.808;37.078;2022-07-09T12:04:20;7.40;;;4.43;;
70213;SDS011;60138;55.808;37.078;2022-07-09T12:06:49;7.30;;;3.90;;
70213;SDS011;60138;55.808;37.078;2022-07-09T12:09:26;8.77;;;5.88;;
70213;SDS011;60138;55.808;37.078;2022-07-09T12:11:53;10.32;;;4.90;;
70213;SDS011;60138;55.808;37.078;2022-07-09T12:14:18;5.97;;;3.83;;
70213;SDS011;60138;55.808;37.078;2022-07-09T12:16:44;6.43;;;3.90;;
70213;SDS011;60138;55.808;37.078;2022-07-09T12:19:10;8.20;;;4.15;;
70213;SDS011;60138;55.808;37.078;2022-07-09T12:21:36;8.33;;;4.13;;
70213;SDS011;60138;55.808;37.078;2022-07-09T12:24:01;8.57;;;4.30;;
70213;SDS011;60138;55.808;37.078;2022-07-09T12:26:27;11.00;;;4.57;;
70213;SDS011;60138;55.808;37.078;2022-07-09T12:28:53;10.82;;;5.15;;
70213;SDS011;60138;55.808;37.078;2022-07-09T12:31:18;8.50;;;4.73;;
70213;SDS011;60138;55.808;37.078;2022-07-09T12:33:44;18.50;;;7.90;;
70213;SDS011;60138;55.808;37.078;2022-07-09T12:36:10;13.20;;;8.07;;
70213;SDS011;60138;55.808;37.078;2022-07-09T12:38:36;19.08;;;11.60;;
70213;SDS011;60138;55.808;37.078;2022-07-09T12:41:01;15.07;;;9.50;;
70213;SDS011;60138;55.808;37.078;2022-07-09T12:43:27;12.07;;;8.30;;
70213;SDS011;60138;55.808;37.078;2022-07-09T12:45:53;12.00;;;6.17;;
70213;SDS011;60138;55.808;37.078;2022-07-09T12:48:18;11.55;;;6.03;;
70213;SDS011;60138;55.808;37.078;2022-07-09T12:50:44;7.77;;;3.93;;
70213;SDS011;60138;55.808;37.078;2022-07-09T12:53:10;7.25;;;4.38;;
70213;SDS011;60138;55.808;37.078;2022-07-09T12:55:36;10.07;;;5.30;;
70213;SDS011;60138;55.808;37.078;2022-07-09T12:58:01;6.25;;;3.63;;
70213;SDS011;60138;55.808;37.078;2022-07-09T13:00:27;7.30;;;3.27;;
70213;SDS011;60138;55.808;37.078;2022-07-09T13:02:53;7.50;;;2.45;;
70213;SDS011;60138;55.808;37.078;2022-07-09T13:05:19;4.60;;;1.90;;
70213;SDS011;60138;55.808;37.078;2022-07-09T13:07:44;3.50;;;2.00;;
70213;SDS011;60138;55.808;37.078;2022-07-09T13:10:10;6.00;;;3.55;;
70213;SDS011;60138;55.808;37.078;2022-07-09T13:12:36;6.77;;;2.43;;
70213;SDS011;60138;55.808;37.078;2022-07-09T13:15:02;5.22;;;2.20;;
70213;SDS011;60138;55.808;37.078;2022-07-09T13:17:29;6.43;;;2.38;;
70213;SDS011;60138;55.808;37.078;2022-07-09T13:19:54;3.67;;;2.20;;
70213;SDS011;60138;55.808;37.078;2022-07-09T13:22:20;4.40;;;2.60;;
70213;SDS011;60138;55.808;37.078;2022-07-09T13:24:46;4.33;;;2.63;;
70213;SDS011;60138;55.808;37.078;2022-07-09T13:27:12;7.13;;;4.82;;
70213;SDS011;60138;55.808;37.078;2022-07-09T13:29:37;6.55;;;3.20;;
70213;SDS011;60138;55.808;37.078;2022-07-09T13:32:03;12.80;;;2.60;;
70213;SDS011;60138;55.808;37.078;2022-07-09T13:34:29;6.72;;;2.38;;
70213;SDS011;60138;55.808;37.078;2022-07-09T13:36:55;4.30;;;2.27;;
70213;SDS011;60138;55.808;37.078;2022-07-09T13:39:21;7.53;;;2.50;;
70213;SDS011;60138;55.808;37.078;2022-07-09T13:41:47;5.55;;;2.35;;
70213;SDS011;60138;55.808;37.078;2022-07-09T13:44:12;5.40;;;2.20;;
70213;SDS011;60138;55.808;37.078;2022-07-09T13:46:38;6.72;;;2.60;;
70213;SDS011;60138;55.808;37.078;2022-07-09T13:49:04;6.82;;;2.70;;
70213;SDS011;60138;55.808;37.078;2022-07-09T13:51:30;3.93;;;2.57;;
70213;SDS011;60138;55.808;37.078;2022-07-09T13:53:56;4.78;;;2.60;;
70213;SDS011;60138;55.808;37.078;2022-07-09T13:56:21;5.00;;;2.87;;
70213;SDS011;60138;55.808;37.078;2022-07-09T13:58:47;5.68;;;3.15;;
70213;SDS011;60138;55.808;37.078;2022-07-09T14:01:13;4.57;;;2.70;;
70213;SDS011;60138;55.808;37.078;2022-07-09T14:03:39;5.25;;;2.85;;
70213;SDS011;60138;55.808;37.078;2022-07-09T14:06:04;4.67;;;2.97;;
70213;SDS011;60138;55.808;37.078;2022-07-09T14:08:30;7.65;;;2.90;;
70213;SDS011;60138;55.808;37.078;2022-07-09T14:10:57;7.97;;;3.10;;
70213;SDS011;60138;55.808;37.078;2022-07-09T14:13:24;7.53;;;2.80;;
70213;SDS011;60138;55.808;37.078;2022-07-09T14:15:51;5.15;;;3.08;;
70213;SDS011;60138;55.808;37.078;2022-07-09T14:18:20;7.35;;;2.55;;
70213;SDS011;60138;55.808;37.078;2022-07-09T14:20:46;5.90;;;2.87;;
70213;SDS011;60138;55.808;37.078;2022-07-09T14:23:12;5.68;;;2.88;;
70213;SDS011;60138;55.808;37.078;2022-07-09T14:25:37;7.63;;;3.50;;
70213;SDS011;60138;55.808;37.078;2022-07-09T14:28:03;7.03;;;3.77;;
70213;SDS011;60138;55.808;37.078;2022-07-09T14:30:29;4.53;;;2.95;;
70213;SDS011;60138;55.808;37.078;2022-07-09T14:32:55;7.30;;;3.00;;
70213;SDS011;60138;55.808;37.078;2022-07-09T14:35:20;6.47;;;2.97;;